sensor_id;sensor_type;location;lat;lon;timestamp;P1;durP1;ratioP1;P2;durP2;ratioP2
52294;SDS011;38243;53.212;6.574;2023-03-23T00:01:24;1.10;;;0.40;;
52294;SDS011;38243;53.212;6.574;2023-03-23T00:03:52;1.20;;;0.40;;
52294;SDS011;38243;53.212;6.574;2023-03-23T00:06:22;0.73;;;0.50;;
52294;SDS011;38243;53.212;6.574;2023-03-23T00:08:51;1.85;;;0.40;;
52294;SDS011;38243;53.212;6.574;2023-03-23T00:11:23;0.80;;;0.40;;
52294;SDS011;38243;53.212;6.574;2023-03-23T00:13:51;1.85;;;0.40;;
52294;SDS011;38243;53.212;6.574;2023-03-23T00:16:22;2.10;;;0.70;;
52294;SDS011;38243;53.212;6.574;2023-03-23T00:19:00;1.90;;;0.47;;
52294;SDS011;38243;53.212;6.574;2023-03-23T00:21:29;0.63;;;0.50;;
52294;SDS011;38243;53.212;6.574;2023-03-23T00:24:04;2.25;;;0.57;;
52294;SDS011;38243;53.212;6.574;2023-03-23T00:26:36;1.60;;;0.43;;
52294;SDS011;38243;53.212;6.574;2023-03-23T00:29:05;2.05;;;0.60;;
52294;SDS011;38243;53.212;6.574;2023-03-23T00:31:33;1.83;;;0.40;;
52294;SDS011;38243;53.212;6.574;2023-03-23T00:34:00;3.38;;;0.52;;
52294;SDS011;38243;53.212;6.574;2023-03-23T00:36:29;1.30;;;0.50;;
52294;SDS011;38243;53.212;6.574;2023-03-23T00:39:00;1.03;;;0.40;;
52294;SDS011;38243;53.212;6.574;2023-03-23T00:41:27;1.05;;;0.43;;
52294;SDS011;38243;53.212;6.574;2023-03-23T00:43:54;1.60;;;0.50;;
52294;SDS011;38243;53.212;6.574;2023-03-23T00:46:21;1.00;;;0.70;;
52294;SDS011;38243;53.212;6.574;2023-03-23T00:48:47;2.17;;;0.90;;
52294;SDS011;38243;53.212;6.574;2023-03-23T00:51:15;1.02;;;0.70;;
52294;SDS011;38243;53.212;6.574;2023-03-23T00:53:42;1.02;;;0.50;;
52294;SDS011;38243;53.212;6.574;2023-03-23T00:56:08;1.08;;;0.43;;
52294;SDS011;38243;53.212;6.574;2023-03-23T00:58:35;0.98;;;0.45;;
52294;SDS011;38243;53.212;6.574;2023-03-23T01:01:01;1.23;;;0.57;;
52294;SDS011;38243;53.212;6.574;2023-03-23T01:03:27;1.40;;;0.68;;
52294;SDS011;38243;53.212;6.574;2023-03-23T01:05:54;1.30;;;0.68;;
52294;SDS011;38243;53.212;6.574;2023-03-23T01:08:21;1.13;;;0.77;;
52294;SDS011;38243;53.212;6.574;2023-03-23T01:10:48;2.17;;;0.43;;
52294;SDS011;38243;53.212;6.574;2023-03-23T01:13:14;1.17;;;0.60;;
52294;SDS011;38243;53.212;6.574;2023-03-23T01:15:40;1.45;;;0.43;;
52294;SDS011;38243;53.212;6.574;2023-03-23T01:18:07;1.70;;;0.52;;
52294;SDS011;38243;53.212;6.574;2023-03-23T01:20:34;1.08;;;0.45;;
52294;SDS011;38243;53.212;6.574;2023-03-23T01:23:01;1.17;;;0.50;;
52294;SDS011;38243;53.212;6.574;2023-03-23T01:25:29;1.05;;;0.40;;
52294;SDS011;38243;53.212;6.574;2023-03-23T01:27:56;1.42;;;0.50;;
52294;SDS011;38243;53.212;6.574;2023-03-23T01:30:22;1.67;;;0.60;;
52294;SDS011;38243;53.212;6.574;2023-03-23T01:32:48;1.10;;;0.47;;
52294;SDS011;38243;53.212;6.574;2023-03-23T01:35:15;1.80;;;0.50;;
52294;SDS011;38243;53.212;6.574;2023-03-23T01:37:41;1.65;;;0.50;;
52294;SDS011;38243;53.212;6.574;2023-03-23T01:40:07;1.48;;;0.70;;
52294;SDS011;38243;53.212;6.574;2023-03-23T01:42:34;1.10;;;0.47;;
52294;SDS011;38243;53.212;6.574;2023-03-23T01:47:49;1.20;;;0.50;;
52294;SDS011;38243;53.212;6.574;2023-03-23T01:50:37;0.98;;;0.73;;
52294;SDS011;38243;53.212;6.574;2023-03-23T01:53:28;2.17;;;0.70;;
52294;SDS011;38243;53.212;6.574;2023-03-23T01:55:58;1.47;;;0.70;;
52294;SDS011;38243;53.212;6.574;2023-03-23T01:58:27;1.27;;;0.90;;
52294;SDS011;38243;53.212;6.574;2023-03-23T02:00:58;1.25;;;0.90;;
52294;SDS011;38243;53.212;6.574;2023-03-23T02:03:27;1.10;;;0.60;;
52294;SDS011;38243;53.212;6.574;2023-03-23T02:05:55;1.90;;;0.80;;
52294;SDS011;38243;53.212;6.574;2023-03-23T02:08:28;1.48;;;0.77;;
52294;SDS011;38243;53.212;6.574;2023-03-23T02:10:57;1.55;;;0.70;;
52294;SDS011;38243;53.212;6.574;2023-03-23T02:13:24;1.85;;;0.80;;
52294;SDS011;38243;53.212;6.574;2023-03-23T02:24:02;1.93;;;0.90;;
52294;SDS011;38243;53.212;6.574;2023-03-23T02:26:50;1.27;;;1.00;;
52294;SDS011;38243;53.212;6.574;2023-03-23T02:34:56;1.08;;;0.63;;
52294;SDS011;38243;53.212;6.574;2023-03-23T02:37:36;1.38;;;0.77;;
52294;SDS011;38243;53.212;6.574;2023-03-23T02:40:12;1.65;;;1.00;;
52294;SDS011;38243;53.212;6.574;2023-03-23T02:42:41;1.65;;;0.70;;
52294;SDS011;38243;53.212;6.574;2023-03-23T02:45:10;1.77;;;0.90;;
52294;SDS011;38243;53.212;6.574;2023-03-23T02:47:39;1.50;;;0.80;;
52294;SDS011;38243;53.212;6.574;2023-03-23T02:50:07;2.00;;;0.90;;
52294;SDS011;38243;53.212;6.574;2023-03-23T02:52:36;1.65;;;0.80;;
52294;SDS011;38243;53.212;6.574;2023-03-23T02:55:05;1.10;;;0.68;;
52294;SDS011;38243;53.212;6.574;2023-03-23T02:57:33;2.17;;;1.20;;
52294;SDS011;38243;53.212;6.574;2023-03-23T03:00:00;1.85;;;0.90;;
52294;SDS011;38243;53.212;6.574;2023-03-23T03:02:29;2.35;;;0.70;;
52294;SDS011;38243;53.212;6.574;2023-03-23T03:18:56;1.50;;;1.00;;
52294;SDS011;38243;53.212;6.574;2023-03-23T03:21:40;1.27;;;0.80;;
52294;SDS011;38243;53.212;6.574;2023-03-23T03:24:09;2.05;;;0.80;;
52294;SDS011;38243;53.212;6.574;2023-03-23T03:26:41;2.45;;;0.70;;
52294;SDS011;38243;53.212;6.574;2023-03-23T03:29:13;1.70;;;0.73;;
52294;SDS011;38243;53.212;6.574;2023-03-23T03:31:43;2.27;;;0.90;;
52294;SDS011;38243;53.212;6.574;2023-03-23T03:34:14;1.85;;;0.80;;
52294;SDS011;38243;53.212;6.574;2023-03-23T03:36:45;2.40;;;0.82;;
52294;SDS011;38243;53.212;6.574;2023-03-23T03:39:13;1.45;;;0.80;;
52294;SDS011;38243;53.212;6.574;2023-03-23T03:41:41;1.23;;;0.70;;
52294;SDS011;38243;53.212;6.574;2023-03-23T03:44:07;2.22;;;1.00;;
52294;SDS011;38243;53.212;6.574;2023-03-23T03:46:33;1.50;;;0.90;;
52294;SDS011;38243;53.212;6.574;2023-03-23T03:49:01;1.73;;;1.00;;
52294;SDS011;38243;53.212;6.574;2023-03-23T03:51:28;1.35;;;0.77;;
52294;SDS011;38243;53.212;6.574;2023-03-23T03:53:54;1.35;;;0.90;;
52294;SDS011;38243;53.212;6.574;2023-03-23T03:56:21;2.70;;;1.10;;
52294;SDS011;38243;53.212;6.574;2023-03-23T03:58:47;1.77;;;1.05;;
52294;SDS011;38243;53.212;6.574;2023-03-23T04:01:14;1.77;;;0.97;;
52294;SDS011;38243;53.212;6.574;2023-03-23T04:03:47;1.40;;;0.75;;
52294;SDS011;38243;53.212;6.574;2023-03-23T04:06:14;1.50;;;0.70;;
52294;SDS011;38243;53.212;6.574;2023-03-23T04:08:41;1.00;;;0.50;;
52294;SDS011;38243;53.212;6.574;2023-03-23T04:11:08;1.88;;;0.73;;
52294;SDS011;38243;53.212;6.574;2023-03-23T04:13:35;1.60;;;0.70;;
52294;SDS011;38243;53.212;6.574;2023-03-23T04:16:02;1.58;;;0.88;;
52294;SDS011;38243;53.212;6.574;2023-03-23T04:18:28;1.50;;;0.68;;
52294;SDS011;38243;53.212;6.574;2023-03-23T04:20:57;1.50;;;0.60;;
52294;SDS011;38243;53.212;6.574;2023-03-23T04:23:24;1.30;;;0.57;;
52294;SDS011;38243;53.212;6.574;2023-03-23T04:25:52;1.40;;;0.50;;
52294;SDS011;38243;53.212;6.574;2023-03-23T04:28:21;2.75;;;0.70;;
52294;SDS011;38243;53.212;6.574;2023-03-23T04:30:49;1.73;;;0.60;;
52294;SDS011;38243;53.212;6.574;2023-03-23T04:33:21;1.73;;;0.60;;
52294;SDS011;38243;53.212;6.574;2023-03-23T04:35:50;2.15;;;0.52;;
52294;SDS011;38243;53.212;6.574;2023-03-23T04:38:19;0.98;;;0.57;;
52294;SDS011;38243;53.212;6.574;2023-03-23T04:40:46;1.33;;;0.60;;
52294;SDS011;38243;53.212;6.574;2023-03-23T04:43:13;1.30;;;0.50;;
52294;SDS011;38243;53.212;6.574;2023-03-23T04:45:40;1.67;;;0.60;;
52294;SDS011;38243;53.212;6.574;2023-03-23T04:48:11;1.27;;;0.50;;
52294;SDS011;38243;53.212;6.574;2023-03-23T04:50:36;1.25;;;0.50;;
52294;SDS011;38243;53.212;6.574;2023-03-23T04:53:03;1.50;;;0.60;;
52294;SDS011;38243;53.212;6.574;2023-03-23T04:55:33;2.08;;;0.60;;
52294;SDS011;38243;53.212;6.574;2023-03-23T04:58:04;1.10;;;0.57;;
52294;SDS011;38243;53.212;6.574;2023-03-23T05:00:31;2.40;;;0.63;;
52294;SDS011;38243;53.212;6.574;2023-03-23T05:02:58;2.05;;;0.70;;
52294;SDS011;38243;53.212;6.574;2023-03-23T05:05:23;1.57;;;0.60;;
52294;SDS011;38243;53.212;6.574;2023-03-23T05:07:50;1.17;;;0.50;;
52294;SDS011;38243;53.212;6.574;2023-03-23T05:10:16;1.20;;;0.50;;
52294;SDS011;38243;53.212;6.574;2023-03-23T05:12:42;2.53;;;0.75;;
52294;SDS011;38243;53.212;6.574;2023-03-23T05:15:09;1.10;;;0.60;;
52294;SDS011;38243;53.212;6.574;2023-03-23T05:17:36;1.40;;;0.60;;
52294;SDS011;38243;53.212;6.574;2023-03-23T05:20:02;1.33;;;0.60;;
52294;SDS011;38243;53.212;6.574;2023-03-23T05:22:35;1.35;;;0.47;;
52294;SDS011;38243;53.212;6.574;2023-03-23T05:25:01;1.73;;;0.70;;
52294;SDS011;38243;53.212;6.574;2023-03-23T05:27:28;1.73;;;0.73;;
52294;SDS011;38243;53.212;6.574;2023-03-23T05:29:56;1.00;;;0.50;;
52294;SDS011;38243;53.212;6.574;2023-03-23T05:32:24;2.08;;;0.70;;
52294;SDS011;38243;53.212;6.574;2023-03-23T05:34:57;2.67;;;0.52;;
52294;SDS011;38243;53.212;6.574;2023-03-23T05:37:24;2.80;;;0.65;;
52294;SDS011;38243;53.212;6.574;2023-03-23T05:39:52;3.72;;;0.80;;
52294;SDS011;38243;53.212;6.574;2023-03-23T05:42:22;1.27;;;0.50;;
52294;SDS011;38243;53.212;6.574;2023-03-23T05:44:48;1.48;;;0.60;;
52294;SDS011;38243;53.212;6.574;2023-03-23T05:47:14;1.73;;;0.77;;
52294;SDS011;38243;53.212;6.574;2023-03-23T05:49:41;2.05;;;0.75;;
52294;SDS011;38243;53.212;6.574;2023-03-23T05:52:07;1.73;;;0.57;;
52294;SDS011;38243;53.212;6.574;2023-03-23T05:54:32;1.85;;;0.52;;
52294;SDS011;38243;53.212;6.574;2023-03-23T05:56:59;2.13;;;0.60;;
52294;SDS011;38243;53.212;6.574;2023-03-23T05:59:25;1.23;;;0.60;;
52294;SDS011;38243;53.212;6.574;2023-03-23T06:01:51;1.98;;;0.70;;
52294;SDS011;38243;53.212;6.574;2023-03-23T06:04:20;2.58;;;0.60;;
52294;SDS011;38243;53.212;6.574;2023-03-23T06:06:49;1.83;;;0.70;;
52294;SDS011;38243;53.212;6.574;2023-03-23T06:09:17;1.85;;;0.75;;
52294;SDS011;38243;53.212;6.574;2023-03-23T06:11:43;3.07;;;0.93;;
52294;SDS011;38243;53.212;6.574;2023-03-23T06:14:09;2.97;;;0.90;;
52294;SDS011;38243;53.212;6.574;2023-03-23T06:16:35;2.65;;;1.00;;
52294;SDS011;38243;53.212;6.574;2023-03-23T06:19:01;2.45;;;0.90;;
52294;SDS011;38243;53.212;6.574;2023-03-23T06:21:29;2.10;;;0.73;;
52294;SDS011;38243;53.212;6.574;2023-03-23T06:23:56;2.40;;;0.80;;
52294;SDS011;38243;53.212;6.574;2023-03-23T06:26:22;4.20;;;0.85;;
52294;SDS011;38243;53.212;6.574;2023-03-23T06:28:50;2.72;;;0.80;;
52294;SDS011;38243;53.212;6.574;2023-03-23T06:31:16;3.40;;;0.90;;
52294;SDS011;38243;53.212;6.574;2023-03-23T06:33:45;2.90;;;1.02;;
52294;SDS011;38243;53.212;6.574;2023-03-23T06:36:12;3.47;;;0.90;;
52294;SDS011;38243;53.212;6.574;2023-03-23T06:38:38;3.03;;;1.00;;
52294;SDS011;38243;53.212;6.574;2023-03-23T06:41:04;2.77;;;0.90;;
52294;SDS011;38243;53.212;6.574;2023-03-23T06:43:30;4.32;;;1.20;;
52294;SDS011;38243;53.212;6.574;2023-03-23T06:45:58;3.50;;;0.80;;
52294;SDS011;38243;53.212;6.574;2023-03-23T06:48:25;4.80;;;1.30;;
52294;SDS011;38243;53.212;6.574;2023-03-23T06:50:52;5.40;;;1.20;;
52294;SDS011;38243;53.212;6.574;2023-03-23T06:53:17;3.57;;;1.10;;
52294;SDS011;38243;53.212;6.574;2023-03-23T06:55:45;5.35;;;1.17;;
52294;SDS011;38243;53.212;6.574;2023-03-23T06:58:11;4.68;;;1.08;;
52294;SDS011;38243;53.212;6.574;2023-03-23T07:00:38;4.00;;;1.15;;
52294;SDS011;38243;53.212;6.574;2023-03-23T07:03:05;6.13;;;1.40;;
52294;SDS011;38243;53.212;6.574;2023-03-23T07:05:32;9.57;;;1.25;;
52294;SDS011;38243;53.212;6.574;2023-03-23T07:08:00;7.75;;;1.45;;
52294;SDS011;38243;53.212;6.574;2023-03-23T07:10:27;6.63;;;1.50;;
52294;SDS011;38243;53.212;6.574;2023-03-23T07:12:53;6.40;;;1.37;;
52294;SDS011;38243;53.212;6.574;2023-03-23T07:15:19;6.32;;;1.50;;
52294;SDS011;38243;53.212;6.574;2023-03-23T07:17:45;6.75;;;1.58;;
52294;SDS011;38243;53.212;6.574;2023-03-23T07:20:12;4.28;;;1.10;;
52294;SDS011;38243;53.212;6.574;2023-03-23T07:22:39;4.30;;;0.95;;
52294;SDS011;38243;53.212;6.574;2023-03-23T07:25:06;4.20;;;1.40;;
52294;SDS011;38243;53.212;6.574;2023-03-23T07:27:32;5.05;;;1.35;;
52294;SDS011;38243;53.212;6.574;2023-03-23T07:29:58;6.35;;;1.25;;
52294;SDS011;38243;53.212;6.574;2023-03-23T07:32:25;5.80;;;1.25;;
52294;SDS011;38243;53.212;6.574;2023-03-23T07:34:51;6.65;;;1.52;;
52294;SDS011;38243;53.212;6.574;2023-03-23T07:37:17;6.80;;;1.33;;
52294;SDS011;38243;53.212;6.574;2023-03-23T07:39:43;7.03;;;1.80;;
52294;SDS011;38243;53.212;6.574;2023-03-23T07:42:09;9.25;;;2.00;;
52294;SDS011;38243;53.212;6.574;2023-03-23T07:44:35;5.87;;;1.53;;
52294;SDS011;38243;53.212;6.574;2023-03-23T07:47:01;6.25;;;1.73;;
52294;SDS011;38243;53.212;6.574;2023-03-23T07:49:27;5.93;;;1.45;;
52294;SDS011;38243;53.212;6.574;2023-03-23T07:51:55;7.27;;;2.07;;
52294;SDS011;38243;53.212;6.574;2023-03-23T07:54:21;4.53;;;1.60;;
52294;SDS011;38243;53.212;6.574;2023-03-23T07:56:47;8.73;;;2.22;;
52294;SDS011;38243;53.212;6.574;2023-03-23T07:59:13;7.60;;;1.97;;
52294;SDS011;38243;53.212;6.574;2023-03-23T08:01:39;8.00;;;2.17;;
52294;SDS011;38243;53.212;6.574;2023-03-23T08:04:05;7.97;;;2.00;;
52294;SDS011;38243;53.212;6.574;2023-03-23T08:06:34;8.35;;;1.95;;
52294;SDS011;38243;53.212;6.574;2023-03-23T08:09:00;17.98;;;2.33;;
52294;SDS011;38243;53.212;6.574;2023-03-23T08:11:31;19.48;;;3.15;;
52294;SDS011;38243;53.212;6.574;2023-03-23T08:13:58;10.77;;;2.53;;
52294;SDS011;38243;53.212;6.574;2023-03-23T08:16:23;16.40;;;3.30;;
52294;SDS011;38243;53.212;6.574;2023-03-23T08:18:50;9.97;;;2.47;;
52294;SDS011;38243;53.212;6.574;2023-03-23T08:21:17;17.48;;;3.13;;
52294;SDS011;38243;53.212;6.574;2023-03-23T08:23:43;22.60;;;3.30;;
52294;SDS011;38243;53.212;6.574;2023-03-23T08:26:09;13.02;;;3.10;;
52294;SDS011;38243;53.212;6.574;2023-03-23T08:28:35;17.25;;;3.35;;
52294;SDS011;38243;53.212;6.574;2023-03-23T08:31:06;14.93;;;2.70;;
52294;SDS011;38243;53.212;6.574;2023-03-23T08:33:36;11.57;;;2.92;;
52294;SDS011;38243;53.212;6.574;2023-03-23T08:36:03;15.48;;;2.70;;
52294;SDS011;38243;53.212;6.574;2023-03-23T08:38:30;16.23;;;2.88;;
52294;SDS011;38243;53.212;6.574;2023-03-23T08:41:00;14.95;;;3.35;;
52294;SDS011;38243;53.212;6.574;2023-03-23T08:43:28;16.88;;;3.33;;
52294;SDS011;38243;53.212;6.574;2023-03-23T08:45:54;13.57;;;3.03;;
52294;SDS011;38243;53.212;6.574;2023-03-23T08:48:21;14.77;;;3.47;;
52294;SDS011;38243;53.212;6.574;2023-03-23T08:50:48;13.02;;;3.13;;
52294;SDS011;38243;53.212;6.574;2023-03-23T08:53:14;12.32;;;3.08;;
52294;SDS011;38243;53.212;6.574;2023-03-23T08:55:40;12.40;;;3.23;;
52294;SDS011;38243;53.212;6.574;2023-03-23T08:58:07;15.00;;;3.67;;
52294;SDS011;38243;53.212;6.574;2023-03-23T09:00:33;12.40;;;3.03;;
52294;SDS011;38243;53.212;6.574;2023-03-23T09:02:59;14.30;;;3.70;;
52294;SDS011;38243;53.212;6.574;2023-03-23T09:05:26;16.17;;;3.33;;
52294;SDS011;38243;53.212;6.574;2023-03-23T09:07:54;12.65;;;3.60;;
52294;SDS011;38243;53.212;6.574;2023-03-23T09:10:24;14.63;;;3.43;;
52294;SDS011;38243;53.212;6.574;2023-03-23T09:12:51;16.48;;;3.85;;
52294;SDS011;38243;53.212;6.574;2023-03-23T09:15:19;14.05;;;3.75;;
52294;SDS011;38243;53.212;6.574;2023-03-23T09:17:47;14.30;;;3.72;;
52294;SDS011;38243;53.212;6.574;2023-03-23T09:20:15;16.15;;;3.50;;
52294;SDS011;38243;53.212;6.574;2023-03-23T09:22:46;14.00;;;3.22;;
52294;SDS011;38243;53.212;6.574;2023-03-23T09:25:15;14.02;;;3.50;;
52294;SDS011;38243;53.212;6.574;2023-03-23T09:27:44;13.43;;;3.35;;
52294;SDS011;38243;53.212;6.574;2023-03-23T09:30:12;14.45;;;3.63;;
52294;SDS011;38243;53.212;6.574;2023-03-23T09:32:39;14.55;;;3.53;;
52294;SDS011;38243;53.212;6.574;2023-03-23T09:35:07;17.00;;;3.78;;
52294;SDS011;38243;53.212;6.574;2023-03-23T09:37:35;15.82;;;3.95;;
52294;SDS011;38243;53.212;6.574;2023-03-23T09:40:02;15.40;;;3.60;;
52294;SDS011;38243;53.212;6.574;2023-03-23T09:42:51;16.20;;;4.00;;
52294;SDS011;38243;53.212;6.574;2023-03-23T09:49:02;16.98;;;3.65;;
52294;SDS011;38243;53.212;6.574;2023-03-23T09:51:00;14.48;;;4.00;;
52294;SDS011;38243;53.212;6.574;2023-03-23T09:53:44;14.57;;;3.50;;
52294;SDS011;38243;53.212;6.574;2023-03-23T09:56:15;17.38;;;4.32;;
52294;SDS011;38243;53.212;6.574;2023-03-23T09:58:53;13.75;;;3.17;;
52294;SDS011;38243;53.212;6.574;2023-03-23T10:02:09;15.43;;;3.80;;
52294;SDS011;38243;53.212;6.574;2023-03-23T10:09:39;14.27;;;3.45;;
52294;SDS011;38243;53.212;6.574;2023-03-23T10:12:21;13.43;;;3.65;;
52294;SDS011;38243;53.212;6.574;2023-03-23T10:18:02;15.13;;;3.22;;
52294;SDS011;38243;53.212;6.574;2023-03-23T10:25:57;14.40;;;3.10;;
52294;SDS011;38243;53.212;6.574;2023-03-23T10:28:37;13.95;;;3.42;;
52294;SDS011;38243;53.212;6.574;2023-03-23T10:31:18;26.20;;;4.03;;
52294;SDS011;38243;53.212;6.574;2023-03-23T10:33:49;17.05;;;3.50;;
52294;SDS011;38243;53.212;6.574;2023-03-23T10:37:20;16.63;;;3.65;;
52294;SDS011;38243;53.212;6.574;2023-03-23T10:39:27;14.23;;;3.53;;
52294;SDS011;38243;53.212;6.574;2023-03-23T10:41:59;16.38;;;3.53;;
52294;SDS011;38243;53.212;6.574;2023-03-23T10:44:32;14.47;;;3.53;;
52294;SDS011;38243;53.212;6.574;2023-03-23T10:47:00;14.05;;;3.25;;
52294;SDS011;38243;53.212;6.574;2023-03-23T10:49:34;14.75;;;3.30;;
52294;SDS011;38243;53.212;6.574;2023-03-23T10:54:46;13.63;;;3.10;;
52294;SDS011;38243;53.212;6.574;2023-03-23T10:57:23;13.48;;;2.95;;
52294;SDS011;38243;53.212;6.574;2023-03-23T11:00:01;17.92;;;3.47;;
52294;SDS011;38243;53.212;6.574;2023-03-23T11:02:43;13.65;;;3.10;;
52294;SDS011;38243;53.212;6.574;2023-03-23T11:05:23;13.90;;;3.25;;
52294;SDS011;38243;53.212;6.574;2023-03-23T11:07:53;15.55;;;3.33;;
52294;SDS011;38243;53.212;6.574;2023-03-23T11:10:22;14.30;;;3.28;;
52294;SDS011;38243;53.212;6.574;2023-03-23T11:12:56;13.00;;;3.28;;
52294;SDS011;38243;53.212;6.574;2023-03-23T11:15:33;16.27;;;3.33;;
52294;SDS011;38243;53.212;6.574;2023-03-23T11:18:06;12.85;;;2.60;;
52294;SDS011;38243;53.212;6.574;2023-03-23T11:20:42;12.27;;;3.05;;
52294;SDS011;38243;53.212;6.574;2023-03-23T11:23:10;11.18;;;2.97;;
52294;SDS011;38243;53.212;6.574;2023-03-23T11:25:51;12.93;;;2.70;;
52294;SDS011;38243;53.212;6.574;2023-03-23T11:28:41;10.50;;;2.47;;
52294;SDS011;38243;53.212;6.574;2023-03-23T11:31:11;10.47;;;2.70;;
52294;SDS011;38243;53.212;6.574;2023-03-23T11:36:36;12.18;;;2.78;;
52294;SDS011;38243;53.212;6.574;2023-03-23T11:39:23;13.27;;;3.10;;
52294;SDS011;38243;53.212;6.574;2023-03-23T11:42:00;9.90;;;2.67;;
52294;SDS011;38243;53.212;6.574;2023-03-23T11:44:41;10.95;;;2.60;;
52294;SDS011;38243;53.212;6.574;2023-03-23T11:49:49;8.35;;;2.38;;
52294;SDS011;38243;53.212;6.574;2023-03-23T11:52:33;9.77;;;2.25;;
52294;SDS011;38243;53.212;6.574;2023-03-23T11:55:14;9.13;;;2.22;;
52294;SDS011;38243;53.212;6.574;2023-03-23T11:57:44;8.70;;;2.20;;
52294;SDS011;38243;53.212;6.574;2023-03-23T12:00:16;10.27;;;2.20;;
52294;SDS011;38243;53.212;6.574;2023-03-23T12:08:29;9.80;;;2.73;;
52294;SDS011;38243;53.212;6.574;2023-03-23T12:16:20;9.57;;;2.20;;
52294;SDS011;38243;53.212;6.574;2023-03-23T12:21:43;7.60;;;2.17;;
52294;SDS011;38243;53.212;6.574;2023-03-23T12:27:09;10.75;;;2.13;;
52294;SDS011;38243;53.212;6.574;2023-03-23T12:32:45;12.45;;;2.20;;
52294;SDS011;38243;53.212;6.574;2023-03-23T12:43:52;9.73;;;2.17;;
52294;SDS011;38243;53.212;6.574;2023-03-23T12:46:28;9.02;;;2.20;;
52294;SDS011;38243;53.212;6.574;2023-03-23T12:51:42;9.00;;;2.10;;
52294;SDS011;38243;53.212;6.574;2023-03-23T12:54:19;7.75;;;2.50;;
52294;SDS011;38243;53.212;6.574;2023-03-23T12:56:59;8.05;;;2.00;;
52294;SDS011;38243;53.212;6.574;2023-03-23T13:04:48;8.70;;;1.90;;
52294;SDS011;38243;53.212;6.574;2023-03-23T13:07:26;9.00;;;2.03;;
52294;SDS011;38243;53.212;6.574;2023-03-23T13:10:12;7.80;;;1.85;;
52294;SDS011;38243;53.212;6.574;2023-03-23T13:12:49;8.40;;;2.17;;
52294;SDS011;38243;53.212;6.574;2023-03-23T13:21:32;8.77;;;2.10;;
52294;SDS011;38243;53.212;6.574;2023-03-23T13:24:08;8.93;;;2.10;;
52294;SDS011;38243;53.212;6.574;2023-03-23T13:26:41;10.32;;;2.42;;
52294;SDS011;38243;53.212;6.574;2023-03-23T13:29:11;11.73;;;2.42;;
52294;SDS011;38243;53.212;6.574;2023-03-23T13:31:39;10.45;;;2.60;;
52294;SDS011;38243;53.212;6.574;2023-03-23T13:34:12;8.70;;;2.45;;
52294;SDS011;38243;53.212;6.574;2023-03-23T13:36:51;10.35;;;2.55;;
52294;SDS011;38243;53.212;6.574;2023-03-23T13:39:25;11.70;;;2.40;;
52294;SDS011;38243;53.212;6.574;2023-03-23T13:42:04;11.43;;;2.78;;
52294;SDS011;38243;53.212;6.574;2023-03-23T13:47:16;9.73;;;2.40;;
52294;SDS011;38243;53.212;6.574;2023-03-23T13:57:53;11.23;;;2.53;;
52294;SDS011;38243;53.212;6.574;2023-03-23T14:00:48;12.30;;;2.80;;
52294;SDS011;38243;53.212;6.574;2023-03-23T14:03:26;12.50;;;2.40;;
52294;SDS011;38243;53.212;6.574;2023-03-23T14:06:05;9.50;;;2.47;;
52294;SDS011;38243;53.212;6.574;2023-03-23T14:08:43;8.40;;;2.40;;
52294;SDS011;38243;53.212;6.574;2023-03-23T14:19:03;11.00;;;2.50;;
52294;SDS011;38243;53.212;6.574;2023-03-23T14:21:40;9.63;;;2.72;;
52294;SDS011;38243;53.212;6.574;2023-03-23T14:24:17;10.40;;;2.70;;
52294;SDS011;38243;53.212;6.574;2023-03-23T14:26:48;13.18;;;2.63;;
52294;SDS011;38243;53.212;6.574;2023-03-23T14:29:17;10.43;;;2.33;;
52294;SDS011;38243;53.212;6.574;2023-03-23T14:31:44;7.05;;;2.22;;
52294;SDS011;38243;53.212;6.574;2023-03-23T14:34:17;10.50;;;2.60;;
52294;SDS011;38243;53.212;6.574;2023-03-23T14:36:45;8.93;;;2.45;;
52294;SDS011;38243;53.212;6.574;2023-03-23T14:39:14;9.13;;;2.63;;
52294;SDS011;38243;53.212;6.574;2023-03-23T14:41:45;8.27;;;1.95;;
52294;SDS011;38243;53.212;6.574;2023-03-23T14:44:16;8.52;;;2.20;;
52294;SDS011;38243;53.212;6.574;2023-03-23T14:46:46;9.68;;;2.47;;
52294;SDS011;38243;53.212;6.574;2023-03-23T14:49:16;8.10;;;2.05;;
52294;SDS011;38243;53.212;6.574;2023-03-23T14:51:53;9.00;;;1.93;;
52294;SDS011;38243;53.212;6.574;2023-03-23T14:54:24;6.45;;;1.73;;
52294;SDS011;38243;53.212;6.574;2023-03-23T14:56:52;7.25;;;1.80;;
52294;SDS011;38243;53.212;6.574;2023-03-23T14:59:19;6.32;;;1.58;;
52294;SDS011;38243;53.212;6.574;2023-03-23T15:01:46;6.43;;;1.77;;
52294;SDS011;38243;53.212;6.574;2023-03-23T15:04:20;8.13;;;1.90;;
52294;SDS011;38243;53.212;6.574;2023-03-23T15:07:00;6.07;;;1.97;;
52294;SDS011;38243;53.212;6.574;2023-03-23T15:09:28;6.80;;;1.90;;
52294;SDS011;38243;53.212;6.574;2023-03-23T15:11:59;6.38;;;1.85;;
52294;SDS011;38243;53.212;6.574;2023-03-23T15:14:29;7.38;;;1.80;;
52294;SDS011;38243;53.212;6.574;2023-03-23T15:17:20;6.05;;;1.60;;
52294;SDS011;38243;53.212;6.574;2023-03-23T15:19:48;7.32;;;1.70;;
52294;SDS011;38243;53.212;6.574;2023-03-23T15:22:18;7.68;;;1.90;;
52294;SDS011;38243;53.212;6.574;2023-03-23T15:28:19;5.95;;;1.80;;
52294;SDS011;38243;53.212;6.574;2023-03-23T15:30:50;6.50;;;1.45;;
52294;SDS011;38243;53.212;6.574;2023-03-23T15:33:18;7.07;;;1.70;;
52294;SDS011;38243;53.212;6.574;2023-03-23T15:35:51;6.75;;;2.10;;
52294;SDS011;38243;53.212;6.574;2023-03-23T15:38:20;5.90;;;1.83;;
52294;SDS011;38243;53.212;6.574;2023-03-23T15:40:51;6.05;;;1.80;;
52294;SDS011;38243;53.212;6.574;2023-03-23T15:43:19;17.52;;;2.40;;
52294;SDS011;38243;53.212;6.574;2023-03-23T15:48:23;7.32;;;1.80;;
52294;SDS011;38243;53.212;6.574;2023-03-23T15:50:50;6.85;;;1.88;;
52294;SDS011;38243;53.212;6.574;2023-03-23T15:53:27;7.22;;;1.98;;
52294;SDS011;38243;53.212;6.574;2023-03-23T15:56:03;7.50;;;1.90;;
52294;SDS011;38243;53.212;6.574;2023-03-23T15:58:30;4.90;;;1.65;;
52294;SDS011;38243;53.212;6.574;2023-03-23T16:00:57;4.90;;;1.60;;
52294;SDS011;38243;53.212;6.574;2023-03-23T16:03:27;5.35;;;1.42;;
52294;SDS011;38243;53.212;6.574;2023-03-23T16:05:58;8.65;;;1.67;;
52294;SDS011;38243;53.212;6.574;2023-03-23T16:08:27;7.45;;;1.83;;
52294;SDS011;38243;53.212;6.574;2023-03-23T16:10:53;7.28;;;1.83;;
52294;SDS011;38243;53.212;6.574;2023-03-23T16:13:19;7.03;;;1.87;;
52294;SDS011;38243;53.212;6.574;2023-03-23T16:15:45;6.32;;;1.65;;
52294;SDS011;38243;53.212;6.574;2023-03-23T16:18:19;7.63;;;1.90;;
52294;SDS011;38243;53.212;6.574;2023-03-23T16:20:49;8.60;;;2.13;;
52294;SDS011;38243;53.212;6.574;2023-03-23T16:23:15;7.53;;;1.70;;
52294;SDS011;38243;53.212;6.574;2023-03-23T16:25:41;4.15;;;1.27;;
52294;SDS011;38243;53.212;6.574;2023-03-23T16:28:08;6.53;;;1.75;;
52294;SDS011;38243;53.212;6.574;2023-03-23T16:30:37;11.45;;;3.25;;
52294;SDS011;38243;53.212;6.574;2023-03-23T16:33:03;13.65;;;4.10;;
52294;SDS011;38243;53.212;6.574;2023-03-23T16:35:29;14.10;;;4.43;;
52294;SDS011;38243;53.212;6.574;2023-03-23T16:37:55;13.05;;;4.20;;
52294;SDS011;38243;53.212;6.574;2023-03-23T16:40:22;13.02;;;4.20;;
52294;SDS011;38243;53.212;6.574;2023-03-23T16:42:49;13.00;;;4.07;;
52294;SDS011;38243;53.212;6.574;2023-03-23T16:45:15;14.30;;;4.10;;
52294;SDS011;38243;53.212;6.574;2023-03-23T16:47:42;10.38;;;3.25;;
52294;SDS011;38243;53.212;6.574;2023-03-23T16:50:09;11.88;;;3.40;;
52294;SDS011;38243;53.212;6.574;2023-03-23T16:52:40;9.40;;;3.10;;
52294;SDS011;38243;53.212;6.574;2023-03-23T16:55:09;10.38;;;3.10;;
52294;SDS011;38243;53.212;6.574;2023-03-23T16:57:35;10.60;;;3.30;;
52294;SDS011;38243;53.212;6.574;2023-03-23T17:00:12;12.00;;;3.45;;
52294;SDS011;38243;53.212;6.574;2023-03-23T17:02:43;11.60;;;3.63;;